Flight Track Log - Related Links

Times and Time Zones

All times are in EST time to prevent confusion due to time zone crossing. See the ASH3732 flight status page for this flight to view local times or setup timezone preferences in your user account.

Time Position Orientation Groundspeed Altitude Reporting Facility
EST Latitude Longitude Course Direction KTS MPH feet Rate Location/Type
Sun 06:52:45 PM 35.1956 -80.9533 186° South 153 176 1,700  Level Atlanta Center
Sun 06:54:17 PM 35.1164 -80.9639 186° South 239 275 4,200 1,961 Climbing Atlanta Center
Sun 06:55:18 PM 35.0911 -81.0358 247° West 263 303 6,700 2,554 Climbing Atlanta Center
Sun 06:55:58 PM 35.1233 -81.0703 319° Northwest 274 315 8,500 2,700 Climbing Atlanta Center
Sun 06:56:18 PM 35.1483 -81.0744 352° North 286 329 9,400 2,400 Climbing Atlanta Center
Sun 06:56:58 PM 35.2042 -81.0572 14° North 317 365 10,900 1,800 Climbing Atlanta Center
Sun 06:57:58 PM 35.2953 -81.0258 16° North 330 380 12,400 2,100 Climbing Atlanta Center
Sun 06:58:58 PM 35.3794 -81.0508 346° North 315 362 15,100 2,250 Climbing Atlanta Center
Sun 06:59:58 PM 35.4597 -81.0964 335° Northwest 303 349 16,900 1,800 Climbing Atlanta Center
Sun 07:00:58 PM 35.5422 -81.1444 335° Northwest 315 362 18,700 1,550 Climbing Atlanta Center
Sun 07:01:58 PM 35.6206 -81.1878 336° Northwest 323 372 20,000 1,600 Climbing Atlanta Center
Sun 07:02:58 PM 35.7175 -81.2381 337° Northwest 346 398 21,900 1,750 Climbing Atlanta Center
Sun 07:03:58 PM 35.8064 -81.2914 334° Northwest 353 406 23,500 1,500 Climbing Atlanta Center
Sun 07:04:58 PM 35.8811 -81.3656 321° Northwest 353 406 24,900 1,300 Climbing Atlanta Center
Sun 07:05:58 PM 35.9578 -81.4453 320° Northwest 348 400 26,100 1,200 Climbing Atlanta Center
Sun 07:06:58 PM 36.0344 -81.5222 321° Northwest 353 406 27,300 1,200 Climbing Atlanta Center
Sun 07:07:58 PM 36.1111 -81.5997 321° Northwest 353 406 28,500 1,100 Climbing Atlanta Center
Sun 07:08:58 PM 36.1878 -81.6772 321° Northwest 358 412 29,500 850 Climbing Atlanta Center
Sun 07:09:58 PM 36.2686 -81.7597 321° Northwest 358 412 30,200 750 Climbing Atlanta Center
Sun 07:10:58 PM 36.3494 -81.8425 320° Northwest 363 418 31,000 1,000 Climbing Atlanta Center
Sun 07:11:58 PM 36.4258 -81.9231 320° Northwest 363 418 32,200 857 Climbing Atlanta Center
Sun 07:14:28 PM 36.6275 -82.1289 321° Northwest 373 429 34,000 509 Climbing Indianapolis Center
Sun 07:15:30 PM 36.7094 -82.2153 320° Northwest 380 437 34,000  Level Indianapolis Center
Sun 07:16:31 PM 36.8075 -82.3169 320° Northwest 389 448 34,000  Level Indianapolis Center
Sun 07:17:33 PM 36.8889 -82.4031 320° Northwest 389 448 34,000  Level Indianapolis Center
Sun 07:18:34 PM 36.9703 -82.4881 320° Northwest 385 443 34,000  Level Indianapolis Center
Sun 07:19:36 PM 37.0522 -82.5744 320° Northwest 385 443 34,000  Level Indianapolis Center
Sun 07:20:37 PM 37.1353 -82.6617 320° Northwest 387 445 34,000  Level Indianapolis Center
Sun 07:21:39 PM 37.2317 -82.7647 320° Northwest 389 448 34,000  Level Indianapolis Center
Sun 07:22:41 PM 37.3142 -82.8528 320° Northwest 389 448 34,000  Level Indianapolis Center
Sun 07:23:42 PM 37.3953 -82.9392 320° Northwest 389 448 34,000  Level Indianapolis Center
Sun 07:24:44 PM 37.4758 -83.0256 320° Northwest 383 441 34,000  Level Indianapolis Center
Sun 07:25:45 PM 37.5561 -83.1114 320° Northwest 383 441 34,000 244 Level Indianapolis Center
Sun 07:26:47 PM 37.6369 -83.1972 320° Northwest 383 441 34,500 585 Climbing Indianapolis Center
Sun 07:27:48 PM 37.7169 -83.2836 320° Northwest 381 438 35,200 732 Climbing Indianapolis Center
Sun 07:28:50 PM 37.8100 -83.3847 319° Northwest 381 438 36,000 390 Climbing Indianapolis Center
Sun 07:29:51 PM 37.8892 -83.4706 319° Northwest 378 435 36,000  Level Indianapolis Center
Sun 07:30:53 PM 37.9694 -83.5567 320° Northwest 377 434 36,000  Level Indianapolis Center
Sun 07:31:54 PM 38.0500 -83.6428 320° Northwest 378 435 36,000  Level Indianapolis Center
Sun 07:32:56 PM 38.1292 -83.7308 319° Northwest 378 435 36,000  Level Indianapolis Center
Sun 07:33:57 PM 38.1822 -83.8344 303° West 358 412 36,000  Level Indianapolis Center
Sun 07:34:59 PM 38.1861 -83.9450 273° West 321 369 36,000  Level Indianapolis Center
Sun 07:36:00 PM 38.1956 -84.0739 275° West 318 366 36,000  Level Indianapolis Center
Sun 07:37:02 PM 38.2383 -84.1783 298° West 333 383 36,000  Level Indianapolis Center
Sun 07:38:03 PM 38.2842 -84.2828 299° West 334 384 36,000  Level Indianapolis Center
Sun 07:39:05 PM 38.3511 -84.3744 313° West 361 415 36,000  Level Indianapolis Center
Sun 07:40:07 PM 38.4503 -84.4356 334° Northwest 391 450 36,000  Level Indianapolis Center
Sun 07:41:08 PM 38.5531 -84.4953 336° Northwest 400 460 36,000  Level Indianapolis Center
Sun 07:42:10 PM 38.6658 -84.5650 334° Northwest 405 466 36,000  Level Indianapolis Center
Sun 07:43:11 PM 38.7694 -84.6269 335° Northwest 407 468 36,000  Level Indianapolis Center
Sun 07:44:13 PM 38.8731 -84.6897 335° Northwest 408 470 36,000  Level Indianapolis Center
Sun 07:45:14 PM 38.9864 -84.7536 336° Northwest 417 480 36,000 -488 Level Indianapolis Center
Sun 07:46:16 PM 39.0897 -84.8164 335° Northwest 414 476 35,000 -1,065 Descending Indianapolis Center
Sun 07:47:18 PM 39.1914 -84.8775 335° Northwest 407 468 33,800 -1,220 Descending Indianapolis Center
Sun 07:48:19 PM 39.2875 -84.9367 335° Northwest 407 468 32,500 -1,659 Descending Indianapolis Center
Sun 07:49:21 PM 39.4117 -85.0119 335° Northwest 410 472 30,400 -1,805 Descending Indianapolis Center
Sun 07:50:22 PM 39.5153 -85.0753 335° Northwest 410 472 28,800 -1,171 Descending Indianapolis Center
Sun 07:51:24 PM 39.6203 -85.1392 335° Northwest 415 478 28,000 -387 Descending Indianapolis Center
Sun 07:52:26 PM 39.7244 -85.2028 335° Northwest 415 478 28,000 -488 Level Indianapolis Center
Sun 07:53:27 PM 39.8278 -85.2664 335° Northwest 415 478 27,000 -976 Descending Indianapolis Center
Sun 07:54:29 PM 39.9258 -85.3256 335° Northwest 402 463 26,000 -488 Descending Indianapolis Center
Sun 07:55:30 PM 40.0397 -85.3967 334° Northwest 388 447 26,000  Level Indianapolis Center
Sun 07:56:32 PM 40.1350 -85.4547 335° Northwest 386 444 26,000 -435 Level Indianapolis Center
Sun 07:57:34 PM 40.2311 -85.5153 334° Northwest 385 443 25,100 -976 Descending Indianapolis Center
Sun 07:58:35 PM 40.3292 -85.5769 334° Northwest 388 447 24,000 -537 Descending Indianapolis Center
Sun 07:59:37 PM 40.4189 -85.6406 332° Northwest 378 435 24,000  Level Indianapolis Center
Sun 08:00:38 PM 40.4975 -85.7208 322° Northwest 362 417 24,000  Level Indianapolis Center
Sun 08:01:40 PM 40.5814 -85.8042 323° Northwest 372 428 24,000 -387 Level Indianapolis Center
Sun 08:02:42 PM 40.6828 -85.9064 323° Northwest 381 438 23,200 -927 Descending Indianapolis Center
Sun 08:03:43 PM 40.7628 -85.9886 322° Northwest 373 429 22,100 -1,220 Descending Indianapolis Center
Sun 08:04:45 PM 40.8417 -86.0683 323° Northwest 362 417 20,700 -1,024 Descending Indianapolis Center
Sun 08:05:46 PM 40.9247 -86.1514 323° Northwest 375 432 20,000 -829 Descending Indianapolis Center
Sun 08:06:48 PM 41.0122 -86.2317 325° Northwest 381 438 19,000 -1,024 Descending Indianapolis Center
Sun 08:07:49 PM 41.0992 -86.3072 327° Northwest 381 438 17,900 -1,220 Descending Indianapolis Center
Sun 08:08:51 PM 41.1833 -86.3806 327° Northwest 373 429 16,500 -809 Descending Indianapolis Center
Sun 08:10:10 PM 41.2919 -86.4758 327° Northwest 350 403 16,000 -557 Descending Chicago Center
Sun 08:11:11 PM 41.3756 -86.5469 327° Northwest 354 407 15,200 -976 Descending Chicago Center
Sun 08:12:13 PM 41.4733 -86.6339 326° Northwest 351 404 14,000 -1,065 Descending Chicago Center
Sun 08:13:15 PM 41.5531 -86.7033 327° Northwest 345 397 13,000 -968 Descending Chicago Center
Sun 08:14:17 PM 41.6389 -86.7764 328° Northwest 338 389 12,000 -488 Descending Chicago Center
Sun 08:15:18 PM 41.7264 -86.8019 348° North 326 375 12,000 -98 Level Chicago Center
Sun 08:16:20 PM 41.8181 -86.8183 352° North 332 382 11,800 -871 Descending Chicago Center
Sun 08:17:22 PM 41.9019 -86.8706 335° Northwest 313 360 10,200 -871 Descending Chicago Center
Sun 08:18:24 PM 41.9303 -86.9708 291° West 297 342 10,000 -97 Descending Chicago Center
Sun 08:19:26 PM 41.9494 -87.0886 282° West 302 348 10,000  Level Chicago Center
Sun 08:20:27 PM 41.9681 -87.1986 283° West 302 348 10,000 -49 Level Chicago Center
Sun 08:21:29 PM 41.9803 -87.3019 279° West 281 323 9,900 -629 Descending Chicago Center
Sun 08:22:31 PM 41.9817 -87.3889 271° West 220 253 8,700 -1,113 Descending Chicago Center
Sun 08:23:33 PM 41.9822 -87.4678 271° West 212 244 7,600 -1,210 Descending Chicago Center
Sun 08:24:35 PM 41.9825 -87.5586 270° West 225 259 6,200 -1,333 Descending Chicago Center
Sun 08:25:30 PM 41.9833 -87.6333 271° West 223 257 5,000 -1,304 Descending Chicago TRACON
Sun 08:26:30 PM 41.9833 -87.7000 270° West 209 241 3,700 -1,190 Descending Chicago TRACON
Sun 08:27:31 PM 41.9833 -87.7667 270° West 169 194 2,600 -1,008 Descending Chicago TRACON
Sun 08:28:29 PM 41.9833 -87.8333 270° West 129 148 1,700 -850 Descending Chicago TRACON
Sun 08:29:31 PM 41.9833 -87.8667 270° West 131 151 900 -774 Descending Chicago TRACON

Login

Don't have an account? Register now (free) for customized features, flight alerts, and more!